Time;durP1;ratioP1;P1;durP2;ratioP2;P2;SDS_P1;SDS_P2;PMS_P1;PMS_P2;Temp;Humidity;BMP_temperature;BMP_pressure;BME280_temperature;BME280_humidity;BME280_pressure;Samples;Min_cycle;Max_cycle;Signal;HPM_P1;HPM_P2
2023/11/23 00:00:12;;;;;;;11.27;7.87;;;8.60;91.50;;;;;;5065459;28;20284;-65
2023/11/23 00:02:40;;;;;;;9.83;7.50;;;8.50;91.50;;;;;;5067190;28;20198;-65
2023/11/23 00:05:08;;;;;;;12.27;7.73;;;8.60;91.40;;;;;;5028326;28;1148640;-65
2023/11/23 00:07:35;;;;;;;13.43;7.93;;;8.50;91.30;;;;;;5069525;28;20218;-65
2023/11/23 00:10:05;;;;;;;10.77;7.40;;;8.50;91.30;;;;;;5066413;28;20205;-65
2023/11/23 00:12:32;;;;;;;10.70;7.47;;;8.50;91.20;;;;;;5064375;28;20261;-65
2023/11/23 00:15:00;;;;;;;10.17;7.33;;;8.50;91.30;;;;;;5038014;28;20216;-64
2023/11/23 00:17:29;;;;;;;12.03;7.30;;;8.40;91.30;;;;;;5060501;28;20200;-65
2023/11/23 00:19:58;;;;;;;11.40;7.40;;;8.40;91.30;;;;;;5067755;28;20199;-65
2023/11/23 00:22:26;;;;;;;9.83;7.97;;;8.40;91.30;;;;;;5047212;28;20285;-65
2023/11/23 00:24:56;;;;;;;10.00;7.17;;;8.40;91.40;;;;;;5062968;28;20211;-65
2023/11/23 00:27:23;;;;;;;15.23;8.30;;;8.30;91.40;;;;;;5062634;28;20274;-65
2023/11/23 00:29:51;;;;;;;12.63;8.53;;;8.30;91.40;;;;;;5050434;28;20529;-65
2023/11/23 00:32:19;;;;;;;13.23;8.50;;;8.20;91.50;;;;;;5066392;28;20545;-65
2023/11/23 00:34:46;;;;;;;11.80;8.73;;;8.20;91.50;;;;;;5047876;28;20207;-65
2023/11/23 00:37:14;;;;;;;12.13;8.57;;;8.10;91.60;;;;;;5061557;28;20203;-65
2023/11/23 00:39:42;;;;;;;13.70;8.80;;;8.10;91.70;;;;;;5061472;28;20275;-65
2023/11/23 00:42:09;;;;;;;13.03;8.67;;;8.10;91.70;;;;;;5052752;28;21184;-65
2023/11/23 00:44:37;;;;;;;13.13;8.50;;;8.10;91.80;;;;;;5066275;28;20201;-64
2023/11/23 00:47:04;;;;;;;14.43;8.57;;;8.10;91.80;;;;;;5067008;28;20217;-65
2023/11/23 00:49:31;;;;;;;12.13;8.33;;;8.10;91.80;;;;;;5051828;28;20263;-65
2023/11/23 00:51:58;;;;;;;13.00;8.33;;;8.10;91.80;;;;;;5063444;28;20691;-65
2023/11/23 00:54:27;;;;;;;10.53;7.53;;;8.10;91.90;;;;;;5061787;28;20203;-65
2023/11/23 00:56:54;;;;;;;12.60;7.87;;;8.10;91.90;;;;;;5063201;28;20550;-65
2023/11/23 00:59:21;;;;;;;13.70;9.13;;;8.10;91.90;;;;;;5063975;28;20220;-64
2023/11/23 01:01:48;;;;;;;15.13;8.73;;;8.10;91.90;;;;;;5059579;28;20220;-65
2023/11/23 01:04:16;;;;;;;9.17;7.57;;;8.00;91.90;;;;;;5054729;28;20325;-65
2023/11/23 01:06:43;;;;;;;12.13;7.60;;;8.00;91.80;;;;;;5064130;28;20214;-65
2023/11/23 01:09:11;;;;;;;15.20;8.03;;;8.00;91.90;;;;;;5067725;28;20285;-65
2023/11/23 01:11:39;;;;;;;13.77;8.20;;;8.00;91.90;;;;;;5051734;28;20294;-65
2023/11/23 01:14:08;;;;;;;9.73;7.20;;;8.00;91.90;;;;;;5064373;28;20197;-65
2023/11/23 01:16:35;;;;;;;18.70;9.43;;;8.00;91.90;;;;;;5064387;28;20201;-65
2023/11/23 01:19:02;;;;;;;14.50;9.60;;;8.00;91.90;;;;;;5044721;28;20210;-65
2023/11/23 01:21:30;;;;;;;15.37;10.00;;;7.90;91.90;;;;;;5065705;28;20213;-65
2023/11/23 01:23:57;;;;;;;17.63;9.57;;;7.90;91.90;;;;;;5060473;28;20206;-65
2023/11/23 01:26:24;;;;;;;11.87;8.20;;;7.90;91.90;;;;;;5048281;28;20269;-65
2023/11/23 01:28:52;;;;;;;13.03;8.70;;;7.90;91.90;;;;;;5068766;28;20198;-65
2023/11/23 01:31:19;;;;;;;16.53;7.60;;;7.90;91.90;;;;;;5061119;28;20204;-65
2023/11/23 01:33:46;;;;;;;11.70;8.40;;;7.90;92.00;;;;;;5063970;28;20220;-65
2023/11/23 01:36:13;;;;;;;9.90;7.77;;;7.90;92.00;;;;;;5059284;28;20218;-65
2023/11/23 01:38:42;;;;;;;10.27;7.90;;;7.90;92.00;;;;;;5064314;28;20589;-65
2023/11/23 01:41:09;;;;;;;11.43;7.93;;;7.90;92.00;;;;;;5061714;28;20317;-65
2023/11/23 01:43:36;;;;;;;30.97;11.20;;;7.90;92.00;;;;;;5061458;28;20202;-65
2023/11/23 01:46:03;;;;;;;26.07;13.23;;;7.90;92.00;;;;;;5061407;28;20223;-65
2023/11/23 01:48:31;;;;;;;24.93;14.97;;;7.90;92.00;;;;;;5064735;28;20195;-65
2023/11/23 01:50:59;;;;;;;24.57;12.10;;;7.90;92.00;;;;;;5060300;28;20195;-65
2023/11/23 01:53:27;;;;;;;18.03;12.03;;;7.90;92.00;;;;;;5065049;28;20203;-64
2023/11/23 01:55:56;;;;;;;21.07;12.07;;;7.90;92.00;;;;;;5066273;28;20276;-65
2023/11/23 01:58:23;;;;;;;16.97;10.07;;;7.90;92.00;;;;;;5059147;28;20289;-65
2023/11/23 02:00:51;;;;;;;16.23;9.97;;;7.90;92.00;;;;;;5041331;28;20203;-65
2023/11/23 02:03:21;;;;;;;13.40;8.97;;;7.90;92.00;;;;;;5064233;28;20195;-65
2023/11/23 02:05:48;;;;;;;13.33;6.93;;;7.80;91.90;;;;;;5064369;28;20198;-65
2023/11/23 02:08:15;;;;;;;12.97;8.10;;;7.80;91.90;;;;;;5067666;28;20225;-65
2023/11/23 02:10:42;;;;;;;9.37;7.40;;;7.80;91.90;;;;;;5064782;28;20197;-65
2023/11/23 02:13:10;;;;;;;10.47;8.10;;;7.70;92.00;;;;;;5052067;28;21613;-65
2023/11/23 02:15:37;;;;;;;12.03;7.93;;;7.70;92.10;;;;;;5052712;28;20194;-65
2023/11/23 02:18:08;;;;;;;14.60;7.57;;;7.70;92.10;;;;;;5068840;28;20238;-65
2023/11/23 02:20:36;;;;;;;10.43;7.43;;;7.70;92.20;;;;;;5065820;28;20217;-65
2023/11/23 02:23:03;;;;;;;13.80;8.73;;;7.60;92.20;;;;;;5055898;28;20675;-65
2023/11/23 02:25:30;;;;;;;13.37;8.60;;;7.60;92.30;;;;;;5065408;28;20206;-65
2023/11/23 02:27:58;;;;;;;18.93;9.90;;;7.60;92.30;;;;;;5064775;28;20268;-65
2023/11/23 02:30:25;;;;;;;16.57;10.50;;;7.60;92.40;;;;;;5069679;28;20206;-65
2023/11/23 02:32:52;;;;;;;19.53;9.77;;;7.60;92.40;;;;;;5063331;28;20194;-65
2023/11/23 02:35:19;;;;;;;15.47;9.00;;;7.60;92.30;;;;;;5073955;28;20212;-65
2023/11/23 02:37:47;;;;;;;16.63;10.13;;;7.60;92.40;;;;;;5064194;28;20245;-65
2023/11/23 02:40:14;;;;;;;17.87;10.07;;;7.50;92.40;;;;;;5051311;28;20301;-65
2023/11/23 02:42:42;;;;;;;15.43;8.60;;;7.50;92.50;;;;;;5047337;28;20206;-65
2023/11/23 02:45:13;;;;;;;12.47;7.80;;;7.50;92.50;;;;;;5066970;28;20236;-65
2023/11/23 02:47:40;;;;;;;13.07;8.27;;;7.50;92.50;;;;;;5054820;28;20271;-65
2023/11/23 02:50:09;;;;;;;10.17;7.83;;;7.50;92.60;;;;;;5063089;28;20199;-65
2023/11/23 02:52:36;;;;;;;11.30;8.53;;;7.50;92.60;;;;;;5068435;28;20213;-65
2023/11/23 02:55:03;;;;;;;14.27;8.17;;;7.40;92.60;;;;;;5065699;28;20260;-65
2023/11/23 02:57:30;;;;;;;13.47;9.27;;;7.30;92.60;;;;;;5062573;28;20202;-65
2023/11/23 02:59:57;;;;;;;13.83;8.27;;;7.30;92.60;;;;;;5063000;28;20819;-65
2023/11/23 03:02:24;;;;;;;14.83;8.87;;;7.30;92.70;;;;;;5059693;28;20229;-65
2023/11/23 03:04:53;;;;;;;13.63;8.97;;;7.20;92.70;;;;;;5064308;28;20242;-65
2023/11/23 03:07:21;;;;;;;11.60;8.33;;;7.20;92.80;;;;;;5062851;28;20268;-65
2023/11/23 03:09:49;;;;;;;12.30;8.20;;;7.10;92.80;;;;;;5054442;28;20203;-65
2023/11/23 03:12:16;;;;;;;10.73;7.73;;;7.10;92.90;;;;;;5068130;28;20198;-65
2023/11/23 03:14:43;;;;;;;10.27;7.83;;;7.10;92.90;;;;;;5066893;28;20210;-65
2023/11/23 03:17:10;;;;;;;9.23;7.40;;;7.00;92.90;;;;;;5051328;28;20205;-65
2023/11/23 03:19:38;;;;;;;13.00;7.23;;;7.00;93.00;;;;;;5064821;28;20530;-65
2023/11/23 03:22:06;;;;;;;12.07;8.00;;;7.00;93.10;;;;;;5068600;28;20202;-65
2023/11/23 03:24:33;;;;;;;11.30;7.90;;;6.90;93.10;;;;;;5066053;28;20601;-65
2023/11/23 03:27:00;;;;;;;9.73;7.10;;;6.90;93.10;;;;;;5056016;28;20301;-65
2023/11/23 03:29:28;;;;;;;9.23;7.30;;;6.90;93.10;;;;;;5067035;28;20290;-65
2023/11/23 03:31:55;;;;;;;9.20;7.33;;;6.80;93.10;;;;;;5067359;28;20221;-65
2023/11/23 03:34:23;;;;;;;11.43;8.13;;;6.80;93.10;;;;;;5067295;28;20187;-65
2023/11/23 03:36:50;;;;;;;13.53;7.47;;;6.80;93.20;;;;;;5062446;28;20281;-64
2023/11/23 03:39:18;;;;;;;11.10;6.90;;;6.80;93.20;;;;;;5062749;28;20280;-65
2023/11/23 03:41:47;;;;;;;11.47;7.87;;;6.70;93.20;;;;;;5065696;28;20237;-65
2023/11/23 03:44:14;;;;;;;9.70;7.73;;;6.70;93.30;;;;;;5067183;28;20206;-65
2023/11/23 03:46:41;;;;;;;17.37;8.33;;;6.70;93.30;;;;;;5071297;28;20251;-65
2023/11/23 03:49:09;;;;;;;13.77;8.27;;;6.60;93.30;;;;;;5060643;28;20271;-65
2023/11/23 03:51:36;;;;;;;14.63;8.87;;;6.60;93.30;;;;;;5046659;28;20288;-65
2023/11/23 03:54:03;;;;;;;10.03;7.70;;;6.60;93.40;;;;;;5066217;28;20224;-64
2023/11/23 03:56:31;;;;;;;10.77;7.77;;;6.60;93.40;;;;;;5067149;28;20255;-65
2023/11/23 03:58:58;;;;;;;10.23;7.60;;;6.50;93.30;;;;;;5063132;28;20198;-65
2023/11/23 04:01:25;;;;;;;10.83;7.97;;;6.50;93.30;;;;;;5063983;28;20585;-65
2023/11/23 04:03:52;;;;;;;12.20;7.90;;;6.50;93.30;;;;;;5061216;28;20246;-65
2023/11/23 04:06:20;;;;;;;10.83;7.57;;;6.40;93.30;;;;;;5067992;28;20217;-65
2023/11/23 04:08:47;;;;;;;11.83;7.57;;;6.40;93.30;;;;;;5063092;28;20227;-65
2023/11/23 04:11:15;;;;;;;10.47;7.67;;;6.40;93.30;;;;;;5069019;28;20215;-65
2023/11/23 04:13:42;;;;;;;10.80;7.50;;;6.30;93.30;;;;;;5059850;28;20628;-65
2023/11/23 04:16:09;;;;;;;11.33;7.87;;;6.30;93.40;;;;;;5059426;28;20241;-65
2023/11/23 04:18:36;;;;;;;8.90;7.17;;;6.30;93.40;;;;;;5066410;28;20209;-65
2023/11/23 04:21:04;;;;;;;12.00;8.23;;;6.20;93.50;;;;;;5067105;28;20271;-65
2023/11/23 04:23:31;;;;;;;11.00;7.87;;;6.20;93.50;;;;;;5062686;28;20205;-65
2023/11/23 04:25:58;;;;;;;13.33;8.37;;;6.20;93.50;;;;;;5058803;28;20206;-65
2023/11/23 04:28:25;;;;;;;9.63;7.60;;;6.20;93.60;;;;;;5059584;28;20221;-65
2023/11/23 04:30:53;;;;;;;9.33;6.87;;;6.20;93.60;;;;;;5067604;28;20666;-65
2023/11/23 04:33:22;;;;;;;10.57;7.63;;;6.20;93.50;;;;;;5061971;28;20574;-65
2023/11/23 04:35:50;;;;;;;11.67;7.97;;;6.10;93.50;;;;;;5069601;28;20228;-65
2023/11/23 04:38:17;;;;;;;12.23;8.27;;;6.10;93.40;;;;;;5051732;28;20226;-64
2023/11/23 04:40:44;;;;;;;13.33;8.13;;;6.10;93.50;;;;;;5066724;28;20522;-64
2023/11/23 04:43:11;;;;;;;10.30;7.97;;;6.00;93.60;;;;;;5064166;28;20198;-65
2023/11/23 04:45:38;;;;;;;13.57;7.97;;;6.00;93.60;;;;;;5065208;28;20518;-65
2023/11/23 04:48:06;;;;;;;13.63;7.57;;;6.00;93.60;;;;;;5062095;28;20210;-65
2023/11/23 04:50:34;;;;;;;9.73;6.90;;;6.00;93.70;;;;;;5064137;28;20191;-65
2023/11/23 04:53:02;;;;;;;10.10;7.40;;;6.00;93.60;;;;;;5068174;28;20198;-65
2023/11/23 04:55:29;;;;;;;11.07;8.00;;;5.90;93.50;;;;;;5065502;28;20611;-65
2023/11/23 04:57:56;;;;;;;11.33;7.40;;;5.90;93.50;;;;;;5066235;28;20233;-65
2023/11/23 05:00:26;;;;;;;12.57;9.10;;;5.80;93.60;;;;;;5060282;28;20209;-65
2023/11/23 05:02:54;;;;;;;16.27;8.03;;;5.80;93.70;;;;;;5062890;28;20202;-65
2023/11/23 05:05:21;;;;;;;12.77;9.23;;;5.70;93.80;;;;;;5064073;28;20303;-65
2023/11/23 05:07:49;;;;;;;15.80;8.87;;;5.70;93.80;;;;;;5052737;28;20235;-65
2023/11/23 05:10:16;;;;;;;14.30;8.90;;;5.70;93.90;;;;;;5064910;28;20200;-65
2023/11/23 05:12:43;;;;;;;12.57;8.53;;;5.70;93.90;;;;;;5071497;28;20217;-65
2023/11/23 05:15:10;;;;;;;15.03;9.23;;;5.70;93.90;;;;;;5061188;28;20293;-65
2023/11/23 05:17:38;;;;;;;15.40;9.07;;;5.70;93.80;;;;;;5059634;28;20292;-65
2023/11/23 05:20:05;;;;;;;12.47;9.00;;;5.70;93.90;;;;;;5061378;28;20190;-65
2023/11/23 05:22:33;;;;;;;11.73;8.77;;;5.70;94.00;;;;;;5065346;28;20539;-65
2023/11/23 05:25:00;;;;;;;17.60;9.13;;;5.60;94.00;;;;;;5063366;28;20280;-65
2023/11/23 05:27:27;;;;;;;12.40;9.30;;;5.60;94.00;;;;;;5062582;28;20224;-64
2023/11/23 05:29:54;;;;;;;15.23;9.87;;;5.60;94.00;;;;;;5064451;28;20209;-65
2023/11/23 05:32:21;;;;;;;19.93;9.40;;;5.60;94.10;;;;;;5066271;28;20219;-65
2023/11/23 05:34:48;;;;;;;15.77;10.17;;;5.60;94.20;;;;;;5066299;28;20274;-65
2023/11/23 05:37:15;;;;;;;13.73;9.57;;;5.70;94.40;;;;;;5067718;28;20248;-65
2023/11/23 05:39:42;;;;;;;12.20;8.53;;;5.60;94.40;;;;;;5064969;28;20206;-65
2023/11/23 05:42:10;;;;;;;13.30;9.47;;;5.60;94.50;;;;;;5065728;28;20202;-65
2023/11/23 05:44:38;;;;;;;14.27;9.07;;;5.70;94.60;;;;;;5065289;28;20197;-65
2023/11/23 05:47:05;;;;;;;17.57;10.03;;;5.70;94.60;;;;;;5064507;28;20224;-65
2023/11/23 05:49:33;;;;;;;13.37;9.83;;;5.70;94.70;;;;;;5047785;28;20204;-65
2023/11/23 05:52:00;;;;;;;13.97;9.00;;;5.70;94.80;;;;;;5061099;28;20209;-65
2023/11/23 05:54:27;;;;;;;10.93;8.83;;;5.70;94.70;;;;;;5066598;28;20213;-65
2023/11/23 05:56:54;;;;;;;13.50;8.93;;;5.70;94.70;;;;;;5060502;28;20212;-65
2023/11/23 05:59:21;;;;;;;12.40;9.47;;;5.60;94.80;;;;;;5067107;28;20561;-64
2023/11/23 06:01:48;;;;;;;14.13;9.00;;;5.60;94.80;;;;;;5061997;28;20203;-65
2023/11/23 06:04:15;;;;;;;14.97;8.93;;;5.60;94.90;;;;;;5042201;28;20244;-65
2023/11/23 06:06:42;;;;;;;12.87;9.13;;;5.60;95.00;;;;;;5059869;28;20198;-65
2023/11/23 06:09:09;;;;;;;15.27;10.27;;;5.60;95.00;;;;;;5065319;28;20227;-65
2023/11/23 06:11:37;;;;;;;11.83;9.50;;;5.60;95.10;;;;;;5071608;28;20227;-64
2023/11/23 06:14:04;;;;;;;11.43;8.67;;;5.60;95.10;;;;;;5063138;28;20291;-64
2023/11/23 06:16:31;;;;;;;12.90;8.90;;;5.60;95.10;;;;;;5041998;28;20223;-64
2023/11/23 06:18:58;;;;;;;14.20;9.73;;;5.60;95.10;;;;;;5045601;28;20210;-65
2023/11/23 06:21:29;;;;;;;14.27;8.90;;;5.60;95.10;;;;;;5066438;28;20196;-65
2023/11/23 06:23:56;;;;;;;11.47;8.80;;;5.60;95.10;;;;;;5066853;28;20213;-65
2023/11/23 06:26:23;;;;;;;13.10;9.47;;;5.60;95.10;;;;;;5062756;28;20280;-65
2023/11/23 06:28:50;;;;;;;15.70;10.03;;;5.50;95.10;;;;;;5059909;28;20225;-65
2023/11/23 06:31:17;;;;;;;14.67;9.60;;;5.60;95.20;;;;;;5063474;28;20238;-64
2023/11/23 06:33:45;;;;;;;15.30;9.93;;;5.60;95.30;;;;;;5060815;28;20209;-64
2023/11/23 06:36:12;;;;;;;16.20;9.23;;;5.60;95.40;;;;;;5066714;28;20202;-64
2023/11/23 06:38:39;;;;;;;14.47;8.73;;;5.60;95.50;;;;;;5064501;28;20210;-65
2023/11/23 06:41:08;;;;;;;15.70;9.73;;;5.60;95.80;;;;;;5060102;28;20210;-65
2023/11/23 06:43:36;;;;;;;12.37;8.90;;;5.60;95.50;;;;;;5063269;28;20260;-65
2023/11/23 06:46:03;;;;;;;14.47;8.30;;;5.70;95.50;;;;;;5064207;28;20213;-65
2023/11/23 06:48:30;;;;;;;14.17;9.13;;;5.70;95.50;;;;;;5060896;28;20652;-65
2023/11/23 06:50:57;;;;;;;13.87;8.97;;;5.70;95.50;;;;;;5042051;28;20692;-65
2023/11/23 06:53:24;;;;;;;12.60;9.13;;;5.70;95.60;;;;;;5066395;28;20201;-65
2023/11/23 06:55:51;;;;;;;17.83;10.13;;;5.80;95.70;;;;;;5066041;28;20201;-65
2023/11/23 06:58:18;;;;;;;15.50;9.50;;;5.90;95.70;;;;;;5057961;28;20201;-65
2023/11/23 07:00:45;;;;;;;14.67;10.43;;;6.10;95.40;;;;;;5068022;28;20197;-65
2023/11/23 07:03:12;;;;;;;16.03;10.60;;;6.20;95.20;;;;;;5064524;28;20615;-65
2023/11/23 07:05:40;;;;;;;14.43;10.07;;;6.20;95.10;;;;;;5045438;28;20226;-65
2023/11/23 07:08:07;;;;;;;13.70;9.63;;;6.20;95.10;;;;;;5052304;28;20542;-65
2023/11/23 07:10:34;;;;;;;12.07;8.43;;;6.20;95.10;;;;;;5066345;28;20190;-64
2023/11/23 07:13:03;;;;;;;16.53;9.43;;;6.20;95.10;;;;;;5072377;28;20556;-65
2023/11/23 07:15:30;;;;;;;14.80;8.63;;;6.20;95.20;;;;;;5062033;28;20194;-65
2023/11/23 07:17:59;;;;;;;13.37;8.80;;;6.20;95.30;;;;;;5063722;28;20213;-65
2023/11/23 07:20:27;;;;;;;11.70;8.67;;;6.30;95.40;;;;;;5067474;28;20355;-65
2023/11/23 07:22:54;;;;;;;17.17;9.53;;;6.40;95.50;;;;;;5068462;28;20272;-65
2023/11/23 07:25:21;;;;;;;14.47;9.60;;;6.40;95.50;;;;;;5067269;28;20251;-65
2023/11/23 07:27:49;;;;;;;15.87;8.93;;;6.50;95.50;;;;;;5064618;28;20214;-65
2023/11/23 07:30:16;;;;;;;14.47;9.03;;;6.60;95.50;;;;;;5063399;28;20633;-65
2023/11/23 07:32:43;;;;;;;15.23;9.27;;;6.60;95.40;;;;;;5063131;28;20194;-65
2023/11/23 07:35:12;;;;;;;12.70;10.30;;;6.70;95.40;;;;;;5066920;28;20264;-65
2023/11/23 07:37:39;;;;;;;12.20;8.50;;;6.80;95.40;;;;;;5067576;28;20217;-65
2023/11/23 07:40:12;;;;;;;12.73;8.30;;;6.90;95.40;;;;;;5066268;28;20209;-65
2023/11/23 07:42:42;;;;;;;13.90;9.77;;;7.00;95.40;;;;;;5051797;28;20503;-65
2023/11/23 07:45:10;;;;;;;10.77;9.10;;;7.00;95.30;;;;;;5065203;28;20196;-65
2023/11/23 07:47:41;;;;;;;11.33;9.13;;;7.20;95.30;;;;;;5047838;28;20202;-65
2023/11/23 07:50:12;;;;;;;17.23;10.37;;;7.30;95.20;;;;;;5055188;28;20222;-65
2023/11/23 07:52:39;;;;;;;14.40;10.30;;;7.40;95.20;;;;;;5066198;28;20206;-65
2023/11/23 07:55:06;;;;;;;12.70;9.73;;;7.50;95.20;;;;;;5066804;28;20191;-65
2023/11/23 07:57:33;;;;;;;14.60;10.17;;;7.60;95.10;;;;;;5068275;28;20194;-65
2023/11/23 08:00:00;;;;;;;12.70;9.50;;;7.70;95.10;;;;;;5066215;28;20187;-65
2023/11/23 08:02:31;;;;;;;13.83;10.17;;;7.80;95.00;;;;;;5067738;28;20203;-65
2023/11/23 08:04:59;;;;;;;12.93;9.90;;;7.90;94.90;;;;;;5063179;28;20254;-65
2023/11/23 08:07:26;;;;;;;12.67;9.57;;;8.00;94.90;;;;;;5063407;28;20216;-65
2023/11/23 08:09:55;;;;;;;11.50;9.37;;;8.10;94.80;;;;;;5051800;28;20224;-65
2023/11/23 08:12:22;;;;;;;13.60;8.17;;;8.20;94.70;;;;;;5070654;28;20205;-65
2023/11/23 08:14:49;;;;;;;13.53;8.63;;;8.30;94.60;;;;;;5066460;28;20494;-65
2023/11/23 08:17:17;;;;;;;10.70;8.50;;;8.40;94.50;;;;;;5060558;28;20195;-65
2023/11/23 08:19:46;;;;;;;10.07;8.23;;;8.50;94.50;;;;;;5064025;28;20278;-65
2023/11/23 08:22:14;;;;;;;12.67;8.00;;;8.60;94.40;;;;;;5069420;28;20330;-65
2023/11/23 08:24:41;;;;;;;11.10;7.60;;;8.70;94.20;;;;;;5063523;28;20200;-65
2023/11/23 08:27:08;;;;;;;12.63;8.17;;;8.80;94.10;;;;;;5061885;28;20202;-65
2023/11/23 08:29:35;;;;;;;11.67;8.13;;;8.90;94.00;;;;;;5064854;28;20307;-65
2023/11/23 08:32:03;;;;;;;8.23;6.93;;;9.00;93.90;;;;;;5065413;28;20688;-65
2023/11/23 08:34:30;;;;;;;11.27;7.37;;;9.20;93.80;;;;;;5067935;28;20202;-64
2023/11/23 08:36:57;;;;;;;10.00;7.77;;;9.30;93.60;;;;;;5066856;28;20203;-64
2023/11/23 08:39:24;;;;;;;9.67;7.70;;;9.40;93.40;;;;;;5068361;28;20259;-65
2023/11/23 08:41:51;;;;;;;10.33;7.60;;;9.50;93.20;;;;;;5061905;28;20294;-65
2023/11/23 08:44:19;;;;;;;14.57;6.63;;;9.70;93.10;;;;;;5055471;28;20272;-65
2023/11/23 08:46:46;;;;;;;11.17;7.63;;;9.70;93.00;;;;;;5065770;28;20213;-65
2023/11/23 08:49:13;;;;;;;13.13;7.43;;;9.90;92.90;;;;;;5061145;28;20233;-65
2023/11/23 08:51:40;;;;;;;16.87;7.33;;;9.90;92.70;;;;;;5062858;28;20518;-65
2023/11/23 08:54:08;;;;;;;8.17;7.03;;;10.00;92.60;;;;;;5066025;28;20194;-65
2023/11/23 08:56:36;;;;;;;10.27;6.70;;;10.10;92.40;;;;;;5066527;28;20203;-65
2023/11/23 08:59:03;;;;;;;8.10;6.23;;;10.20;92.30;;;;;;5047593;28;20304;-64
2023/11/23 09:01:30;;;;;;;9.13;6.93;;;10.30;92.10;;;;;;5064377;28;20531;-64
2023/11/23 09:03:57;;;;;;;8.20;6.63;;;10.40;91.70;;;;;;5060546;28;20705;-65
2023/11/23 09:06:24;;;;;;;10.80;6.90;;;10.40;91.40;;;;;;5065138;28;20223;-65
2023/11/23 09:08:52;;;;;;;10.77;7.60;;;10.50;91.00;;;;;;5063778;28;20222;-65
2023/11/23 09:11:19;;;;;;;8.60;6.90;;;10.60;90.90;;;;;;5064443;28;20577;-65
2023/11/23 09:13:46;;;;;;;9.07;6.83;;;10.60;90.70;;;;;;5062157;28;20680;-65
2023/11/23 09:16:13;;;;;;;11.10;7.07;;;10.70;90.40;;;;;;5067412;28;20573;-64
2023/11/23 09:18:43;;;;;;;7.63;6.37;;;10.70;90.00;;;;;;5062975;28;20634;-65
2023/11/23 09:21:10;;;;;;;8.03;6.13;;;10.70;90.00;;;;;;5062810;28;20255;-65
2023/11/23 09:23:38;;;;;;;10.73;6.77;;;10.80;90.00;;;;;;5063630;28;20279;-65
2023/11/23 09:26:07;;;;;;;11.17;6.33;;;10.90;90.10;;;;;;5040131;28;20585;-65
2023/11/23 09:28:34;;;;;;;11.70;6.77;;;11.00;90.00;;;;;;5063734;28;20542;-65
2023/11/23 09:31:02;;;;;;;7.83;5.73;;;11.10;90.00;;;;;;5063152;28;20261;-65
2023/11/23 09:33:31;;;;;;;8.70;6.50;;;11.20;89.70;;;;;;5064630;28;20232;-65
2023/11/23 09:36:02;;;;;;;10.47;6.20;;;11.30;89.10;;;;;;5069207;28;20197;-65
2023/11/23 09:38:29;;;;;;;9.37;6.63;;;11.30;88.30;;;;;;5046754;28;20232;-66
2023/11/23 09:41:02;;;;;;;12.30;6.10;;;11.40;87.90;;;;;;5062854;28;20208;-65
2023/11/23 09:43:29;;;;;;;5.90;5.30;;;11.50;87.50;;;;;;5042819;28;20255;-65
2023/11/23 09:45:57;;;;;;;6.43;5.47;;;11.60;87.10;;;;;;5066253;28;20254;-65
2023/11/23 09:48:27;;;;;;;6.80;5.33;;;11.60;86.30;;;;;;5065304;28;20357;-65
2023/11/23 09:50:55;;;;;;;6.43;5.60;;;11.70;85.80;;;;;;5060437;28;20192;-65
2023/11/23 09:53:23;;;;;;;10.47;5.80;;;11.70;85.60;;;;;;5066011;28;20291;-65
2023/11/23 09:55:52;;;;;;;8.37;6.07;;;11.80;85.70;;;;;;5060888;28;20222;-65
2023/11/23 09:58:21;;;;;;;6.97;5.67;;;11.90;85.60;;;;;;5064176;28;20210;-65
2023/11/23 10:00:49;;;;;;;6.37;5.20;;;12.00;85.20;;;;;;5060850;28;20210;-65
2023/11/23 10:03:20;;;;;;;6.30;5.67;;;12.10;84.80;;;;;;5059766;28;20209;-65
2023/11/23 10:05:47;;;;;;;7.13;5.57;;;12.20;84.20;;;;;;5060512;28;20206;-65
2023/11/23 10:08:16;;;;;;;5.67;5.07;;;12.20;84.30;;;;;;5060060;28;20201;-65
2023/11/23 10:10:45;;;;;;;7.53;5.40;;;12.30;84.40;;;;;;5065755;28;20194;-65
2023/11/23 10:13:12;;;;;;;6.23;5.60;;;12.30;84.40;;;;;;5065149;28;20197;-65
2023/11/23 10:15:39;;;;;;;5.63;5.03;;;12.40;83.90;;;;;;5061085;28;20198;-64
2023/11/23 10:18:06;;;;;;;6.37;4.90;;;12.50;83.80;;;;;;5062482;28;20212;-63
2023/11/23 10:20:36;;;;;;;7.30;4.50;;;12.50;83.60;;;;;;5061834;28;20608;-66
2023/11/23 10:23:07;;;;;;;5.37;4.50;;;12.60;83.30;;;;;;5065282;28;20284;-65
2023/11/23 10:25:35;;;;;;;6.70;4.87;;;12.70;82.90;;;;;;5062909;28;20201;-65
2023/11/23 10:28:03;;;;;;;5.57;4.97;;;12.70;81.00;;;;;;5058955;28;20263;-63
2023/11/23 10:30:32;;;;;;;6.87;4.73;;;12.80;80.40;;;;;;5065761;28;20217;-64
2023/11/23 10:33:00;;;;;;;4.80;4.30;;;12.80;80.90;;;;;;5068374;28;20199;-65
2023/11/23 10:35:50;;;;;;;5.33;4.73;;;12.80;81.30;;;;;;5073825;28;20196;-65
2023/11/23 10:38:19;;;;;;;4.30;3.90;;;12.90;80.80;;;;;;5062727;28;20279;-66
2023/11/23 10:40:51;;;;;;;7.47;4.57;;;12.90;79.50;;;;;;5069177;28;20198;-64
2023/11/23 10:43:18;;;;;;;8.07;4.30;;;13.00;78.60;;;;;;5056557;28;20198;-65
2023/11/23 10:45:48;;;;;;;5.27;4.03;;;13.00;78.90;;;;;;5070093;28;21043;-63
2023/11/23 10:48:17;;;;;;;6.60;4.30;;;13.10;78.30;;;;;;5063323;28;20190;-61
2023/11/23 10:50:45;;;;;;;4.57;4.07;;;13.10;78.70;;;;;;5069540;28;20201;-62
2023/11/23 10:53:14;;;;;;;6.23;4.50;;;13.20;79.00;;;;;;5066402;28;20281;-64
2023/11/23 10:55:41;;;;;;;6.30;3.73;;;13.30;79.00;;;;;;5056853;28;20231;-62
2023/11/23 10:58:12;;;;;;;5.77;4.77;;;13.40;77.30;;;;;;5070061;28;20627;-65
2023/11/23 11:00:40;;;;;;;6.70;4.90;;;13.40;76.90;;;;;;5050312;28;20206;-63
2023/11/23 11:03:10;;;;;;;4.73;4.33;;;13.50;77.00;;;;;;5048283;28;20275;-64
2023/11/23 11:05:45;;;;;;;5.07;4.43;;;13.60;77.60;;;;;;5064639;28;20686;-64
2023/11/23 11:08:18;;;;;;;5.90;4.27;;;13.60;77.90;;;;;;5068850;28;20582;-63
2023/11/23 11:10:46;;;;;;;4.83;3.43;;;13.70;77.90;;;;;;5069278;28;20209;-65
2023/11/23 11:13:15;;;;;;;5.20;3.40;;;13.80;77.30;;;;;;5067137;28;20221;-64
2023/11/23 11:15:55;;;;;;;4.43;4.03;;;13.90;77.10;;;;;;5063883;28;20583;-64
2023/11/23 11:18:24;;;;;;;4.47;4.00;;;14.00;76.90;;;;;;5066201;28;20547;-63
2023/11/23 11:21:07;;;;;;;4.87;4.37;;;14.10;76.90;;;;;;5063071;28;20190;-65
2023/11/23 11:23:55;;;;;;;5.00;4.50;;;14.20;77.10;;;;;;5067725;28;20247;-63
2023/11/23 11:26:33;;;;;;;4.23;3.83;;;14.30;76.90;;;;;;5057561;28;20209;-64
2023/11/23 11:29:01;;;;;;;5.83;4.13;;;14.40;76.10;;;;;;5067380;28;20242;-64
2023/11/23 11:31:39;;;;;;;4.37;3.97;;;14.50;75.70;;;;;;5071175;28;20610;-64
2023/11/23 11:34:21;;;;;;;5.40;3.80;;;14.60;73.70;;;;;;5066919;28;20224;-63
2023/11/23 11:37:04;;;;;;;4.80;4.30;;;14.50;73.60;;;;;;5064083;28;20232;-63
2023/11/23 11:39:35;;;;;;;7.23;4.10;;;14.60;74.10;;;;;;5063472;28;20202;-63
2023/11/23 11:42:07;;;;;;;4.40;4.00;;;14.60;74.70;;;;;;5068377;28;20194;-65
2023/11/23 11:44:35;;;;;;;5.63;4.20;;;14.70;74.90;;;;;;5069101;28;20208;-65
2023/11/23 11:47:08;;;;;;;4.30;3.73;;;14.80;74.10;;;;;;5068594;28;20284;-62
2023/11/23 11:49:35;;;;;;;4.00;3.60;;;14.80;72.70;;;;;;5068692;28;20225;-63
2023/11/23 11:52:02;;;;;;;4.77;3.93;;;14.80;72.70;;;;;;5065539;28;20611;-64
2023/11/23 11:54:30;;;;;;;6.63;3.87;;;14.80;72.90;;;;;;5069326;28;20193;-64
2023/11/23 11:56:57;;;;;;;9.97;3.80;;;14.90;72.90;;;;;;5065037;28;20198;-64
2023/11/23 11:59:25;;;;;;;4.70;4.00;;;14.90;73.60;;;;;;5069585;28;20228;-63
2023/11/23 12:01:56;;;;;;;5.93;4.17;;;15.00;73.90;;;;;;5067784;28;20201;-64
2023/11/23 12:04:23;;;;;;;8.00;3.70;;;15.00;73.80;;;;;;5059978;28;20246;-64
2023/11/23 12:06:52;;;;;;;5.10;3.80;;;15.10;73.70;;;;;;5065389;28;20561;-64
2023/11/23 12:09:23;;;;;;;5.87;3.80;;;15.10;73.10;;;;;;5056238;28;20245;-64
2023/11/23 12:12:05;;;;;;;4.13;3.30;;;15.20;73.10;;;;;;5071559;28;20212;-64
2023/11/23 12:14:34;;;;;;;4.20;3.60;;;15.20;73.40;;;;;;5066619;28;20511;-64
2023/11/23 12:17:11;;;;;;;4.03;3.63;;;15.20;73.10;;;;;;5062299;28;20740;-64
2023/11/23 12:19:54;;;;;;;5.60;3.70;;;15.30;72.50;;;;;;5066593;28;20207;-64
2023/11/23 12:22:22;;;;;;;5.63;3.70;;;15.30;72.90;;;;;;5055962;28;20278;-63
2023/11/23 12:24:51;;;;;;;3.70;3.37;;;15.30;72.50;;;;;;5065677;28;20697;-63
2023/11/23 12:27:20;;;;;;;4.00;3.60;;;15.30;71.90;;;;;;5063593;28;21070;-64
2023/11/23 12:29:48;;;;;;;5.30;3.37;;;15.30;71.50;;;;;;5062382;28;20215;-64
2023/11/23 12:32:16;;;;;;;5.00;4.37;;;15.20;70.70;;;;;;5049629;28;20201;-64
2023/11/23 12:34:44;;;;;;;6.07;3.77;;;15.20;70.90;;;;;;5064863;28;20208;-64
2023/11/23 12:37:11;;;;;;;5.00;4.03;;;15.10;71.10;;;;;;5066846;28;20193;-63
2023/11/23 12:39:38;;;;;;;5.90;3.50;;;15.10;70.80;;;;;;5061011;28;20194;-64
2023/11/23 12:42:05;;;;;;;4.97;3.67;;;15.00;70.80;;;;;;5067746;28;20206;-63
2023/11/23 12:44:35;;;;;;;4.60;4.13;;;15.00;71.40;;;;;;5063994;28;20221;-63
2023/11/23 12:47:02;;;;;;;7.43;3.87;;;15.00;72.10;;;;;;5066929;28;20209;-63
2023/11/23 12:49:29;;;;;;;7.00;4.00;;;15.10;72.50;;;;;;5065448;28;20230;-64